createdAt,value
2019-03-31T00:02:24.300Z,99.90
2019-03-31T00:04:52.749Z,99.90
2019-03-31T00:07:24.174Z,99.90
2019-03-31T00:09:54.154Z,99.90
2019-03-31T00:12:22.682Z,99.90
2019-03-31T00:14:51.118Z,99.90
2019-03-31T00:17:19.558Z,99.90
2019-03-31T00:19:47.990Z,99.90
2019-03-31T00:22:16.429Z,99.90
2019-03-31T00:24:45.063Z,99.90
2019-03-31T00:27:13.502Z,99.90
2019-03-31T00:29:41.937Z,99.90
2019-03-31T00:32:10.392Z,99.90
2019-03-31T00:34:38.858Z,99.90
2019-03-31T00:37:07.872Z,99.90
2019-03-31T00:39:36.417Z,99.90
2019-03-31T00:42:04.866Z,99.90
2019-03-31T00:44:33.310Z,99.90
2019-03-31T00:47:02.303Z,99.90
2019-03-31T00:49:31.061Z,99.90
2019-03-31T00:51:59.506Z,99.90
2019-03-31T00:54:28.045Z,99.90
2019-03-31T00:56:57.214Z,99.90
2019-03-31T00:59:25.662Z,99.90
2019-03-31T01:01:56.077Z,99.90
2019-03-31T01:04:26.621Z,99.90
2019-03-31T01:06:55.907Z,99.90
2019-03-31T01:09:28.314Z,99.90
2019-03-31T01:11:57.297Z,99.90
2019-03-31T01:14:26.531Z,99.90
2019-03-31T01:16:55.247Z,99.90
2019-03-31T01:19:24.041Z,99.90
2019-03-31T01:21:52.491Z,99.90
2019-03-31T01:24:21.113Z,99.90
2019-03-31T01:26:49.549Z,99.90
2019-03-31T01:29:18.422Z,99.90
2019-03-31T01:31:50.573Z,99.90
2019-03-31T01:34:18.170Z,99.90
2019-03-31T01:36:46.610Z,99.90
2019-03-31T01:39:15.321Z,99.90
2019-03-31T01:41:43.780Z,99.90
2019-03-31T01:44:12.350Z,99.90
2019-03-31T01:46:40.805Z,99.90
2019-03-31T01:49:09.502Z,99.90
2019-03-31T01:51:37.941Z,99.90
2019-03-31T01:54:06.390Z,99.90
2019-03-31T01:56:34.816Z,99.90
2019-03-31T01:59:03.246Z,99.90
2019-03-31T02:01:31.965Z,99.90
2019-03-31T02:04:00.515Z,99.90
2019-03-31T02:06:38.103Z,99.90
2019-03-31T02:09:07.501Z,99.90
2019-03-31T02:11:36.006Z,99.90
2019-03-31T02:14:04.696Z,99.90
2019-03-31T02:16:33.171Z,99.90
2019-03-31T02:19:01.608Z,99.90
2019-03-31T02:21:30.041Z,99.90
2019-03-31T02:23:58.478Z,99.90
2019-03-31T02:26:26.914Z,99.90
2019-03-31T02:28:55.373Z,99.90
2019-03-31T02:31:23.798Z,99.90
2019-03-31T02:33:52.265Z,99.90
2019-03-31T02:36:20.721Z,99.90
2019-03-31T02:38:49.342Z,99.90
2019-03-31T02:41:17.782Z,99.90
2019-03-31T02:43:46.311Z,99.90
2019-03-31T02:46:14.759Z,99.90
2019-03-31T02:48:43.184Z,99.90
2019-03-31T02:51:11.635Z,99.90
2019-03-31T02:53:40.082Z,99.90
2019-03-31T02:56:09.131Z,99.90
2019-03-31T02:58:38.223Z,99.90
2019-03-31T03:01:07.754Z,99.90
2019-03-31T03:03:39.193Z,99.90
2019-03-31T03:06:10.313Z,99.90
2019-03-31T03:08:41.176Z,99.90
2019-03-31T03:11:12.436Z,99.90
2019-03-31T03:13:43.401Z,99.90
2019-03-31T03:16:19.297Z,99.90
2019-03-31T03:18:48.785Z,99.90
2019-03-31T03:21:17.483Z,99.90
2019-03-31T03:23:45.914Z,99.90
2019-03-31T03:26:14.523Z,99.90
2019-03-31T03:28:42.955Z,99.90
2019-03-31T03:31:15.670Z,99.90
2019-03-31T03:33:41.919Z,99.90
2019-03-31T03:36:11.846Z,99.90
2019-03-31T03:38:40.475Z,99.90
2019-03-31T03:41:08.914Z,99.90
2019-03-31T03:43:54.075Z,99.90
2019-03-31T03:46:07.502Z,99.90
2019-03-31T03:48:35.938Z,99.90
2019-03-31T03:51:05.918Z,99.90
2019-03-31T03:53:34.431Z,99.90
2019-03-31T03:56:02.878Z,99.90
2019-03-31T03:58:31.369Z,99.90
2019-03-31T04:00:59.815Z,99.90
2019-03-31T04:03:30.386Z,99.90
2019-03-31T04:05:58.426Z,99.90
2019-03-31T04:08:26.852Z,99.90
2019-03-31T04:11:09.620Z,99.90
2019-03-31T04:13:38.054Z,99.90
2019-03-31T04:16:06.498Z,99.90
2019-03-31T04:18:34.938Z,99.90
2019-03-31T04:21:03.455Z,99.90
2019-03-31T04:23:31.883Z,99.90
2019-03-31T04:26:00.344Z,99.90
2019-03-31T04:28:28.847Z,99.90
2019-03-31T04:30:57.344Z,99.90
2019-03-31T04:33:25.795Z,99.90
2019-03-31T04:35:54.331Z,99.90
2019-03-31T04:38:23.621Z,99.90
2019-03-31T04:40:52.044Z,99.90
2019-03-31T04:43:20.549Z,99.90
2019-03-31T04:45:49.086Z,99.90
2019-03-31T04:48:17.522Z,99.90
2019-03-31T04:50:45.950Z,99.90
2019-03-31T04:53:14.387Z,99.90
2019-03-31T04:55:42.830Z,99.90
2019-03-31T04:58:12.178Z,99.90
2019-03-31T05:00:40.873Z,99.90
2019-03-31T05:03:09.318Z,99.90
2019-03-31T05:05:37.750Z,99.90
2019-03-31T05:08:06.195Z,99.90
2019-03-31T05:10:34.774Z,99.90
2019-03-31T05:13:03.223Z,99.90
2019-03-31T05:15:31.755Z,99.90
2019-03-31T05:18:00.192Z,99.90
2019-03-31T05:20:28.637Z,99.90
2019-03-31T05:22:57.137Z,99.90
2019-03-31T05:25:25.567Z,99.90
2019-03-31T05:27:54.026Z,99.90
2019-03-31T05:30:22.473Z,99.90
2019-03-31T05:32:52.542Z,99.90
2019-03-31T05:35:20.964Z,99.90
2019-03-31T05:37:52.902Z,99.90
2019-03-31T05:40:21.345Z,99.90
2019-03-31T05:42:50.145Z,99.90
2019-03-31T05:45:37.922Z,99.90
2019-03-31T05:48:06.349Z,99.90
2019-03-31T05:50:34.782Z,99.90
2019-03-31T05:53:03.211Z,99.90
2019-03-31T05:55:31.681Z,99.90
2019-03-31T05:58:00.127Z,99.90
2019-03-31T06:00:31.917Z,99.90
2019-03-31T06:03:00.341Z,99.90
2019-03-31T06:05:28.826Z,99.90
2019-03-31T06:07:57.270Z,99.90
2019-03-31T06:10:25.719Z,99.90
2019-03-31T06:12:54.166Z,99.90
2019-03-31T06:15:22.597Z,99.90
2019-03-31T06:17:51.024Z,99.90
2019-03-31T06:20:19.466Z,99.90
2019-03-31T06:22:47.889Z,99.90
2019-03-31T06:25:16.475Z,99.90
2019-03-31T06:27:44.937Z,99.90
2019-03-31T06:30:13.813Z,99.90
2019-03-31T06:32:42.246Z,99.90
2019-03-31T06:35:10.687Z,99.90
2019-03-31T06:37:39.114Z,99.90
2019-03-31T06:40:07.991Z,99.90
2019-03-31T06:42:36.419Z,99.90
2019-03-31T06:45:06.571Z,99.90
2019-03-31T06:47:35.019Z,99.90
2019-03-31T06:50:06.680Z,99.90
2019-03-31T06:52:35.107Z,99.90
2019-03-31T06:55:05.874Z,99.90
2019-03-31T06:57:34.315Z,99.90
2019-03-31T07:00:03.202Z,99.90
2019-03-31T07:02:31.649Z,99.90
2019-03-31T07:05:01.326Z,99.90
2019-03-31T07:07:30.319Z,99.90
2019-03-31T07:09:58.753Z,99.90
2019-03-31T07:12:27.190Z,99.90
2019-03-31T07:14:55.629Z,99.90
2019-03-31T07:17:24.075Z,99.90
2019-03-31T07:19:52.498Z,99.90
2019-03-31T07:22:24.255Z,99.90
2019-03-31T07:24:53.542Z,99.90
2019-03-31T07:27:22.120Z,99.90
2019-03-31T07:29:50.555Z,99.90
2019-03-31T07:32:18.985Z,99.90
2019-03-31T07:34:47.432Z,99.90
2019-03-31T07:37:15.902Z,99.90
2019-03-31T07:39:46.204Z,99.90
2019-03-31T07:42:15.648Z,99.90
2019-03-31T07:44:44.109Z,99.90
2019-03-31T07:47:13.596Z,99.90
2019-03-31T07:49:42.179Z,99.90
2019-03-31T07:52:10.666Z,99.90
2019-03-31T07:54:39.095Z,99.90
2019-03-31T07:57:07.692Z,99.90
2019-03-31T07:59:36.352Z,99.90
2019-03-31T08:02:04.794Z,99.90
2019-03-31T08:04:33.225Z,99.90
2019-03-31T08:07:01.766Z,99.90
2019-03-31T08:09:30.181Z,99.90
2019-03-31T08:12:01.623Z,99.90
2019-03-31T08:14:30.048Z,99.90
2019-03-31T08:16:58.493Z,99.90
2019-03-31T08:19:27.136Z,99.90
2019-03-31T08:21:56.855Z,99.90
2019-03-31T08:24:25.588Z,99.90
2019-03-31T08:26:54.075Z,99.90
2019-03-31T08:29:22.615Z,99.90
2019-03-31T08:31:51.506Z,99.90
2019-03-31T08:34:19.929Z,99.90
2019-03-31T08:36:48.533Z,99.90
2019-03-31T08:39:17.020Z,99.90
2019-03-31T08:41:45.505Z,99.90
2019-03-31T08:44:13.941Z,99.90
2019-03-31T08:46:42.375Z,99.90
2019-03-31T08:49:10.890Z,99.90
2019-03-31T08:51:39.313Z,99.90
2019-03-31T08:54:07.927Z,99.90
2019-03-31T08:56:36.350Z,99.90
2019-03-31T08:59:04.789Z,99.90
2019-03-31T09:01:33.246Z,99.90
2019-03-31T09:04:01.691Z,99.90
2019-03-31T09:06:30.136Z,99.90
2019-03-31T09:08:58.768Z,99.90
2019-03-31T09:11:27.334Z,99.90
2019-03-31T09:13:55.958Z,99.90
2019-03-31T09:16:24.461Z,99.90
2019-03-31T09:18:53.945Z,99.90
2019-03-31T09:21:22.381Z,99.90
2019-03-31T09:23:50.870Z,99.90
2019-03-31T09:26:19.486Z,99.90
2019-03-31T09:28:47.921Z,99.90
2019-03-31T09:31:16.541Z,99.90
2019-03-31T09:33:44.970Z,99.90
2019-03-31T09:36:16.311Z,99.90
2019-03-31T09:38:43.710Z,99.90
2019-03-31T09:41:12.155Z,99.90
2019-03-31T09:43:40.589Z,99.90
2019-03-31T09:46:09.057Z,99.90
2019-03-31T09:48:37.549Z,99.90
2019-03-31T09:51:05.987Z,99.90
2019-03-31T09:53:34.482Z,99.90
2019-03-31T09:56:02.921Z,99.90
2019-03-31T09:58:31.350Z,99.90
2019-03-31T10:00:59.786Z,99.90
2019-03-31T10:03:29.659Z,99.90
2019-03-31T10:06:09.897Z,99.90
2019-03-31T10:08:28.569Z,99.90
2019-03-31T10:10:57.292Z,99.90
2019-03-31T10:13:25.836Z,99.90
2019-03-31T10:15:54.317Z,99.90
2019-03-31T10:18:22.802Z,99.90
2019-03-31T10:20:51.254Z,99.90
2019-03-31T10:23:19.673Z,99.90
2019-03-31T10:25:48.114Z,99.90
2019-03-31T10:28:16.561Z,99.90
2019-03-31T10:30:45.057Z,99.90
2019-03-31T10:33:13.567Z,99.90
2019-03-31T10:35:44.702Z,99.90
2019-03-31T10:38:13.147Z,99.90
2019-03-31T10:40:41.658Z,99.90
2019-03-31T10:43:10.076Z,99.90
2019-03-31T10:45:38.639Z,99.90
2019-03-31T10:48:19.713Z,99.90
2019-03-31T10:50:37.293Z,99.90
2019-03-31T10:53:05.788Z,99.90
2019-03-31T10:55:34.229Z,99.90
2019-03-31T10:58:02.683Z,99.90
2019-03-31T11:00:44.620Z,99.90
2019-03-31T11:03:16.405Z,99.90
2019-03-31T11:05:44.905Z,99.90
2019-03-31T11:08:13.362Z,99.90
2019-03-31T11:10:41.785Z,99.90
2019-03-31T11:13:10.259Z,99.90
2019-03-31T11:15:38.761Z,99.90
2019-03-31T11:18:07.200Z,99.90
2019-03-31T11:20:35.639Z,99.90
2019-03-31T11:23:20.760Z,99.90
2019-03-31T11:25:50.207Z,99.90
2019-03-31T11:28:18.657Z,99.90
2019-03-31T11:30:47.123Z,99.90
2019-03-31T11:33:17.061Z,99.90
2019-03-31T11:35:45.529Z,99.90
2019-03-31T11:38:13.996Z,99.90
2019-03-31T11:40:45.317Z,99.90
2019-03-31T11:43:13.786Z,99.90
2019-03-31T11:45:42.217Z,99.90
2019-03-31T11:48:12.081Z,99.90
2019-03-31T11:50:40.514Z,99.90
2019-03-31T11:53:09.625Z,99.90
2019-03-31T11:55:38.124Z,99.90
2019-03-31T11:58:06.593Z,99.90
2019-03-31T12:00:36.665Z,99.90
2019-03-31T12:03:05.097Z,99.90
2019-03-31T12:05:34.858Z,99.90
2019-03-31T12:08:03.933Z,99.90
2019-03-31T12:10:32.532Z,99.90
2019-03-31T12:13:00.977Z,99.90
2019-03-31T12:15:31.086Z,99.90
2019-03-31T12:17:59.534Z,99.90
2019-03-31T12:20:28.047Z,99.90
2019-03-31T12:22:56.550Z,99.90
2019-03-31T12:25:24.993Z,99.90
2019-03-31T12:27:53.427Z,99.90
2019-03-31T12:30:26.754Z,99.90
2019-03-31T12:32:55.657Z,99.90
2019-03-31T12:35:24.317Z,99.90
2019-03-31T12:37:52.746Z,99.90
2019-03-31T12:40:37.367Z,99.90
2019-03-31T12:43:05.824Z,99.90
2019-03-31T12:45:34.325Z,99.90
2019-03-31T12:48:02.776Z,99.90
2019-03-31T12:50:31.213Z,99.90
2019-03-31T12:52:59.672Z,99.90
2019-03-31T12:55:28.118Z,99.90
2019-03-31T12:57:56.549Z,99.90
2019-03-31T13:00:25.029Z,99.90
2019-03-31T13:02:53.470Z,99.90
2019-03-31T13:05:21.914Z,99.90
2019-03-31T13:07:56.739Z,99.90
2019-03-31T13:10:20.746Z,99.90
2019-03-31T13:12:53.966Z,99.90
2019-03-31T13:15:22.463Z,99.90
2019-03-31T13:17:51.029Z,99.90
2019-03-31T13:20:19.474Z,99.90
2019-03-31T13:22:47.910Z,99.90
2019-03-31T13:25:16.359Z,99.90
2019-03-31T13:27:44.865Z,99.90
2019-03-31T13:30:14.368Z,99.90
2019-03-31T13:32:43.127Z,99.90
2019-03-31T13:35:11.821Z,99.90
2019-03-31T13:37:40.249Z,99.90
2019-03-31T13:40:09.823Z,99.90
2019-03-31T13:42:38.259Z,99.90
2019-03-31T13:45:07.279Z,99.90
2019-03-31T13:47:35.785Z,99.90
2019-03-31T13:50:07.049Z,99.90
2019-03-31T13:52:35.495Z,99.90
2019-03-31T13:55:09.011Z,99.90
2019-03-31T13:57:39.261Z,99.90
2019-03-31T14:00:12.947Z,99.90
2019-03-31T14:02:41.365Z,99.90
2019-03-31T14:05:10.439Z,99.90
2019-03-31T14:07:38.875Z,99.90
2019-03-31T14:10:07.890Z,99.90
2019-03-31T14:12:36.325Z,99.90
2019-03-31T14:15:18.459Z,99.90
2019-03-31T14:17:37.202Z,99.90
2019-03-31T14:20:07.474Z,99.90
2019-03-31T14:22:36.238Z,99.90
2019-03-31T14:25:06.423Z,99.90
2019-03-31T14:27:34.871Z,99.90
2019-03-31T14:30:05.382Z,99.90
2019-03-31T14:32:33.867Z,99.90
2019-03-31T14:35:02.311Z,99.90
2019-03-31T14:37:32.030Z,99.90
2019-03-31T14:40:00.661Z,99.90
2019-03-31T14:42:29.102Z,99.90
2019-03-31T14:44:57.532Z,99.90
2019-03-31T14:47:26.117Z,99.90
2019-03-31T14:49:54.554Z,99.70
2019-03-31T14:52:27.773Z,99.20
2019-03-31T14:54:55.734Z,96.10
2019-03-31T14:57:23.496Z,96.30
2019-03-31T14:59:51.921Z,98.20
2019-03-31T15:02:20.369Z,99.90
2019-03-31T15:04:48.843Z,98.80
2019-03-31T15:07:17.277Z,99.90
2019-03-31T15:09:45.900Z,97.70
2019-03-31T15:12:14.338Z,98.20
2019-03-31T15:14:42.870Z,99.90
2019-03-31T15:17:11.337Z,99.90
2019-03-31T15:19:39.765Z,99.30
2019-03-31T15:22:08.237Z,99.90
2019-03-31T15:24:36.666Z,99.90
2019-03-31T15:27:05.104Z,99.90
2019-03-31T15:29:33.558Z,99.90
2019-03-31T15:32:01.991Z,99.90
2019-03-31T15:34:30.443Z,99.90
2019-03-31T15:36:58.874Z,99.90
2019-03-31T15:39:27.314Z,99.90
2019-03-31T15:41:56.313Z,99.90
2019-03-31T15:44:24.848Z,99.90
2019-03-31T15:46:54.542Z,99.90
2019-03-31T15:49:22.983Z,99.90
2019-03-31T15:51:51.423Z,99.90
2019-03-31T15:54:19.888Z,99.90
2019-03-31T15:56:48.394Z,99.90
2019-03-31T15:59:16.828Z,99.90
2019-03-31T16:01:45.253Z,99.90
2019-03-31T16:04:13.693Z,99.90
2019-03-31T16:06:42.318Z,99.90
2019-03-31T16:09:22.837Z,99.90
2019-03-31T16:11:53.112Z,99.90
2019-03-31T16:14:11.092Z,99.90
2019-03-31T16:16:39.523Z,99.90
2019-03-31T16:19:07.962Z,99.90
2019-03-31T16:21:36.392Z,99.90
2019-03-31T16:24:04.830Z,99.90
2019-03-31T16:26:33.266Z,99.90
2019-03-31T16:29:01.896Z,99.90
2019-03-31T16:31:30.337Z,99.90
2019-03-31T16:33:58.972Z,99.90
2019-03-31T16:36:27.429Z,99.90
2019-03-31T16:38:55.859Z,99.90
2019-03-31T16:41:24.708Z,99.90
2019-03-31T16:43:53.382Z,99.90
2019-03-31T16:46:22.080Z,99.90
2019-03-31T16:48:50.543Z,99.90
2019-03-31T16:51:19.501Z,99.90
2019-03-31T16:53:47.934Z,99.90
2019-03-31T16:56:16.382Z,99.90
2019-03-31T16:58:44.827Z,99.90
2019-03-31T17:01:13.324Z,99.90
2019-03-31T17:03:41.754Z,99.90
2019-03-31T17:06:10.326Z,99.90
2019-03-31T17:08:39.039Z,99.90
2019-03-31T17:11:07.490Z,99.90
2019-03-31T17:13:35.979Z,99.90
2019-03-31T17:16:04.607Z,99.90
2019-03-31T17:18:33.039Z,99.90
2019-03-31T17:21:01.566Z,99.90
2019-03-31T17:23:29.991Z,99.90
2019-03-31T17:25:58.442Z,99.90
2019-03-31T17:28:27.700Z,99.90
2019-03-31T17:30:56.142Z,99.90
2019-03-31T17:33:24.708Z,99.90
2019-03-31T17:35:53.252Z,99.90
2019-03-31T17:38:21.674Z,99.90
2019-03-31T17:40:50.131Z,99.90
2019-03-31T17:43:18.602Z,99.90
2019-03-31T17:45:47.037Z,99.90
2019-03-31T17:48:15.483Z,99.90
2019-03-31T17:50:44.009Z,99.90
2019-03-31T17:53:12.455Z,99.90
2019-03-31T17:55:40.916Z,99.90
2019-03-31T17:58:09.432Z,99.90
2019-03-31T18:00:37.866Z,99.90
2019-03-31T18:03:06.313Z,99.90
2019-03-31T18:05:34.818Z,99.90
2019-03-31T18:08:03.313Z,99.90
2019-03-31T18:10:31.757Z,99.90
2019-03-31T18:13:00.215Z,99.90
2019-03-31T18:15:28.646Z,99.90
2019-03-31T18:17:57.080Z,99.90
2019-03-31T18:20:25.516Z,99.90
2019-03-31T18:22:53.987Z,99.90
2019-03-31T18:25:23.695Z,99.90
2019-03-31T18:27:52.192Z,99.90
2019-03-31T18:30:21.259Z,99.90
2019-03-31T18:32:49.697Z,99.90
2019-03-31T18:35:18.251Z,99.90
2019-03-31T18:37:46.682Z,99.90
2019-03-31T18:40:15.242Z,99.90
2019-03-31T18:42:43.928Z,99.90
2019-03-31T18:45:12.413Z,99.90
2019-03-31T18:47:40.863Z,99.90
2019-03-31T18:50:09.525Z,99.90
2019-03-31T18:52:38.035Z,99.90
2019-03-31T18:55:26.683Z,99.90
2019-03-31T18:57:57.092Z,99.90
2019-03-31T19:00:35.903Z,99.90
2019-03-31T19:03:22.691Z,99.90
2019-03-31T19:06:09.206Z,99.90
2019-03-31T19:08:51.466Z,99.90
2019-03-31T19:11:36.756Z,99.90
2019-03-31T19:14:12.718Z,99.90
2019-03-31T19:16:54.741Z,99.90
2019-03-31T19:19:27.760Z,99.90
2019-03-31T19:22:06.681Z,99.90
2019-03-31T19:24:53.265Z,99.90
2019-03-31T19:27:26.351Z,99.90
2019-03-31T19:29:59.365Z,99.90
2019-03-31T19:32:29.439Z,99.90
2019-03-31T19:35:16.069Z,99.90
2019-03-31T19:37:46.310Z,99.90
2019-03-31T19:40:22.294Z,99.90
2019-03-31T19:43:04.173Z,99.90
2019-03-31T19:45:37.195Z,99.90
2019-03-31T19:48:07.275Z,99.90
2019-03-31T19:50:37.360Z,99.90
2019-03-31T19:53:16.249Z,99.90
2019-03-31T19:55:50.616Z,99.90
2019-03-31T19:58:36.914Z,99.90
2019-03-31T20:01:25.221Z,99.90
2019-03-31T20:03:55.295Z,99.90
2019-03-31T20:06:34.358Z,99.90
2019-03-31T20:09:07.574Z,99.90
2019-03-31T20:11:37.668Z,99.90
2019-03-31T20:14:13.475Z,99.90
2019-03-31T20:16:49.500Z,99.90
2019-03-31T20:19:28.284Z,99.90
2019-03-31T20:21:58.395Z,99.90
2019-03-31T20:24:34.262Z,99.90
2019-03-31T20:27:13.489Z,99.90
2019-03-31T20:29:55.286Z,99.90
2019-03-31T20:32:43.319Z,99.90
2019-03-31T20:35:13.386Z,99.90
2019-03-31T20:37:46.663Z,99.90
2019-03-31T20:40:25.661Z,99.90
2019-03-31T20:43:01.875Z,99.90
2019-03-31T20:45:30.325Z,99.90
2019-03-31T20:47:58.758Z,99.90
2019-03-31T20:50:27.182Z,99.90
2019-03-31T20:52:55.744Z,99.90
2019-03-31T20:55:24.165Z,99.90
2019-03-31T20:57:52.607Z,99.90
2019-03-31T21:00:21.519Z,99.90
2019-03-31T21:02:49.954Z,99.90
2019-03-31T21:05:18.426Z,99.90
2019-03-31T21:07:46.934Z,99.90
2019-03-31T21:10:15.509Z,99.90
2019-03-31T21:12:43.990Z,99.90
2019-03-31T21:15:12.585Z,99.90
2019-03-31T21:17:41.023Z,99.90
2019-03-31T21:20:09.665Z,99.90
2019-03-31T21:22:38.121Z,99.90
2019-03-31T21:25:06.619Z,99.90
2019-03-31T21:27:35.061Z,99.90
2019-03-31T21:30:04.990Z,99.90
2019-03-31T21:32:33.429Z,99.90
2019-03-31T21:35:01.877Z,99.90
2019-03-31T21:37:30.365Z,99.90
2019-03-31T21:39:58.853Z,99.90
2019-03-31T21:42:27.269Z,99.90
2019-03-31T21:44:55.744Z,99.90
2019-03-31T21:47:25.347Z,99.90
2019-03-31T21:49:54.888Z,99.90
2019-03-31T21:52:23.323Z,99.90
2019-03-31T21:54:51.762Z,99.90
2019-03-31T21:57:20.200Z,99.90
2019-03-31T21:59:48.643Z,99.90
2019-03-31T22:02:17.206Z,99.90
2019-03-31T22:04:45.648Z,99.90
2019-03-31T22:07:14.105Z,99.90
2019-03-31T22:09:42.614Z,99.90
2019-03-31T22:12:11.040Z,99.90
2019-03-31T22:14:40.721Z,99.90
2019-03-31T22:19:37.341Z,99.90
2019-03-31T22:22:05.789Z,99.90
2019-03-31T22:24:34.416Z,99.90
2019-03-31T22:27:02.861Z,99.90
2019-03-31T22:29:31.293Z,99.90
2019-03-31T22:32:03.838Z,99.90
2019-03-31T22:34:37.296Z,99.90
2019-03-31T22:37:05.871Z,99.90
2019-03-31T22:39:37.525Z,99.90
2019-03-31T22:42:06.094Z,99.90
2019-03-31T22:44:34.558Z,99.90
2019-03-31T22:47:02.982Z,99.90
2019-03-31T22:49:31.409Z,99.90
2019-03-31T22:51:59.926Z,99.90
2019-03-31T22:54:28.373Z,99.90
2019-03-31T22:56:56.838Z,99.90
2019-03-31T22:59:25.269Z,99.90
2019-03-31T23:01:53.717Z,99.90
2019-03-31T23:04:25.069Z,99.90
2019-03-31T23:06:53.522Z,99.90
2019-03-31T23:09:21.951Z,99.90
2019-03-31T23:11:50.387Z,99.90
2019-03-31T23:14:18.816Z,99.90
2019-03-31T23:16:47.241Z,99.90
2019-03-31T23:19:15.681Z,99.90
2019-03-31T23:21:44.313Z,99.90
2019-03-31T23:24:12.894Z,99.90
2019-03-31T23:26:41.345Z,99.90
2019-03-31T23:29:09.758Z,99.90
2019-03-31T23:31:38.204Z,99.90
2019-03-31T23:34:06.630Z,99.90
2019-03-31T23:36:35.058Z,99.90
2019-03-31T23:39:05.225Z,99.90
2019-03-31T23:41:33.690Z,99.90
2019-03-31T23:44:02.109Z,99.90
2019-03-31T23:46:30.538Z,99.90
2019-03-31T23:48:58.966Z,99.90
2019-03-31T23:51:27.402Z,99.90
2019-03-31T23:53:55.830Z,99.90
2019-03-31T23:56:24.363Z,99.90
2019-03-31T23:58:52.786Z,99.90
